Pagina principale
METAR-TAF:

METAR-TAF

Aeroporti :

Memmingen, Germania

latitudine: 47-59-33N, longitudine: 10-14-37E, altezza: 633 m

Osservazione

Il bollettino è stato emesso 27 minuti fa, alle 01:50 UTC
Vento 18 kt da ovest
Temperature 11°C
Umidità 76%
Pressione 1023 hPa
Visibilità 10 km o più

METAR: EDJA 240150Z AUTO 26018KT 9999 // FEW019/// BKN041/// OVC049/// 11/07 Q1023

Ora: 03:17 (02:17 UTC)

Previsione

Il bollettino è stato emesso 9 ore e 17 minuti fa, alle 17:00 UTC
Previsione valida dal 23 alle 18 UTC al 24 alle 03 UTC
Vento 25 kt da sud-ovest con raffiche fino a 35 kt
Visibilità 10 km o più
nessuna nube inferiore a 1500 m e nessun cumulonembo
Temporaneamente
dal 23 alle 23 UTC al 24 alle 03 UTC
Visibilità: 3500 m
Nuvoloso ad un'altezza di 800 ft
pioggia
Evoluzione graduale
dal 24 alle 00 UTC al 24 alle 03 UTC
Vento 15 kt da ovest con raffiche fino a 25 kt

TAF: EDJA 231700Z 2318/2403 23025G35KT CAVOK TEMPO 2323/2403 3500 RA BKN008 BECMG 2400/2403 28015G25KT

Osservazioni e previsioni meteorologiche di più di 4000 aeroporti (messaggi METAR e TAF).

Le stazioni disponibili sono rappresentate dai dischi gialli e rossi sulla carta.

Puntare il mouse per vedere il nome della stazione.

Clicca sopra per visualizzare le osservazioni e previsioni meteorologiche.

Per cambiare la mappa : fare clic sui pulsanti verdi con una croce nera per ingrandire, il pulsante verde con un trattino per diminuire, o sulla freccia verde per le mappe adiacenti.


METAR-TAF: